sensor_id;sensor_type;location;lat;lon;timestamp;P1;durP1;ratioP1;P2;durP2;ratioP2
7669;SDS011;3877;42.562;27.636;2024-02-21T00:00:35;18.53;;;12.07;;
7669;SDS011;3877;42.562;27.636;2024-02-21T00:03:03;13.93;;;11.10;;
7669;SDS011;3877;42.562;27.636;2024-02-21T00:05:31;18.27;;;11.80;;
7669;SDS011;3877;42.562;27.636;2024-02-21T00:08:01;22.17;;;11.03;;
7669;SDS011;3877;42.562;27.636;2024-02-21T00:10:29;19.83;;;13.13;;
7669;SDS011;3877;42.562;27.636;2024-02-21T00:12:57;17.23;;;11.60;;
7669;SDS011;3877;42.562;27.636;2024-02-21T00:15:26;17.30;;;12.30;;
7669;SDS011;3877;42.562;27.636;2024-02-21T00:17:52;16.33;;;12.00;;
7669;SDS011;3877;42.562;27.636;2024-02-21T00:20:20;17.50;;;11.87;;
7669;SDS011;3877;42.562;27.636;2024-02-21T00:22:47;18.67;;;12.30;;
7669;SDS011;3877;42.562;27.636;2024-02-21T00:25:14;19.07;;;11.53;;
7669;SDS011;3877;42.562;27.636;2024-02-21T00:27:41;21.07;;;11.90;;
7669;SDS011;3877;42.562;27.636;2024-02-21T00:30:08;15.70;;;11.03;;
7669;SDS011;3877;42.562;27.636;2024-02-21T00:32:37;18.53;;;11.67;;
7669;SDS011;3877;42.562;27.636;2024-02-21T00:35:04;17.30;;;12.07;;
7669;SDS011;3877;42.562;27.636;2024-02-21T00:37:31;18.20;;;11.40;;
7669;SDS011;3877;42.562;27.636;2024-02-21T00:39:58;15.67;;;10.77;;
7669;SDS011;3877;42.562;27.636;2024-02-21T00:42:25;17.47;;;10.97;;
7669;SDS011;3877;42.562;27.636;2024-02-21T00:44:52;18.20;;;11.63;;
7669;SDS011;3877;42.562;27.636;2024-02-21T00:47:19;20.57;;;11.80;;
7669;SDS011;3877;42.562;27.636;2024-02-21T00:49:48;19.00;;;12.60;;
7669;SDS011;3877;42.562;27.636;2024-02-21T00:52:15;16.93;;;11.33;;
7669;SDS011;3877;42.562;27.636;2024-02-21T00:54:41;16.03;;;11.17;;
7669;SDS011;3877;42.562;27.636;2024-02-21T00:57:09;17.97;;;11.33;;
7669;SDS011;3877;42.562;27.636;2024-02-21T00:59:36;17.70;;;11.70;;
7669;SDS011;3877;42.562;27.636;2024-02-21T01:02:03;16.90;;;10.80;;
7669;SDS011;3877;42.562;27.636;2024-02-21T01:04:30;15.70;;;11.13;;
7669;SDS011;3877;42.562;27.636;2024-02-21T01:06:58;16.03;;;11.43;;
7669;SDS011;3877;42.562;27.636;2024-02-21T01:09:25;19.97;;;11.33;;
7669;SDS011;3877;42.562;27.636;2024-02-21T01:11:52;16.40;;;11.23;;
7669;SDS011;3877;42.562;27.636;2024-02-21T01:14:19;16.67;;;11.73;;
7669;SDS011;3877;42.562;27.636;2024-02-21T01:16:46;21.37;;;11.73;;
7669;SDS011;3877;42.562;27.636;2024-02-21T01:19:13;22.30;;;11.80;;
7669;SDS011;3877;42.562;27.636;2024-02-21T01:21:40;17.37;;;11.43;;
7669;SDS011;3877;42.562;27.636;2024-02-21T01:24:08;21.73;;;11.70;;
7669;SDS011;3877;42.562;27.636;2024-02-21T01:26:35;16.60;;;11.10;;
7669;SDS011;3877;42.562;27.636;2024-02-21T01:29:02;19.73;;;11.77;;
7669;SDS011;3877;42.562;27.636;2024-02-21T01:31:29;17.67;;;11.27;;
7669;SDS011;3877;42.562;27.636;2024-02-21T01:33:57;18.53;;;12.10;;
7669;SDS011;3877;42.562;27.636;2024-02-21T01:36:24;19.63;;;11.53;;
7669;SDS011;3877;42.562;27.636;2024-02-21T01:38:51;16.43;;;11.83;;
7669;SDS011;3877;42.562;27.636;2024-02-21T01:41:20;17.13;;;12.13;;
7669;SDS011;3877;42.562;27.636;2024-02-21T01:43:47;16.77;;;12.00;;
7669;SDS011;3877;42.562;27.636;2024-02-21T01:46:14;20.00;;;11.70;;
7669;SDS011;3877;42.562;27.636;2024-02-21T01:48:43;17.90;;;12.70;;
7669;SDS011;3877;42.562;27.636;2024-02-21T01:51:11;19.27;;;11.40;;
7669;SDS011;3877;42.562;27.636;2024-02-21T01:53:40;18.83;;;12.10;;
7669;SDS011;3877;42.562;27.636;2024-02-21T01:56:09;18.90;;;12.07;;
7669;SDS011;3877;42.562;27.636;2024-02-21T01:58:38;21.63;;;12.40;;
7669;SDS011;3877;42.562;27.636;2024-02-21T02:01:05;20.73;;;12.87;;
7669;SDS011;3877;42.562;27.636;2024-02-21T02:03:32;20.80;;;12.97;;
7669;SDS011;3877;42.562;27.636;2024-02-21T02:05:59;23.83;;;13.53;;
7669;SDS011;3877;42.562;27.636;2024-02-21T02:08:26;21.33;;;12.87;;
7669;SDS011;3877;42.562;27.636;2024-02-21T02:10:53;26.30;;;13.50;;
7669;SDS011;3877;42.562;27.636;2024-02-21T02:13:20;20.63;;;13.23;;
7669;SDS011;3877;42.562;27.636;2024-02-21T02:15:49;19.63;;;12.47;;
7669;SDS011;3877;42.562;27.636;2024-02-21T02:18:17;23.33;;;13.20;;
7669;SDS011;3877;42.562;27.636;2024-02-21T02:20:44;19.43;;;11.73;;
7669;SDS011;3877;42.562;27.636;2024-02-21T02:25:43;19.87;;;13.00;;
7669;SDS011;3877;42.562;27.636;2024-02-21T02:28:14;19.30;;;12.43;;
7669;SDS011;3877;42.562;27.636;2024-02-21T02:30:41;16.50;;;12.00;;
7669;SDS011;3877;42.562;27.636;2024-02-21T02:33:09;19.33;;;12.47;;
7669;SDS011;3877;42.562;27.636;2024-02-21T02:35:36;18.60;;;12.40;;
7669;SDS011;3877;42.562;27.636;2024-02-21T02:38:03;20.27;;;13.37;;
7669;SDS011;3877;42.562;27.636;2024-02-21T02:40:30;20.17;;;12.97;;
7669;SDS011;3877;42.562;27.636;2024-02-21T02:42:59;21.33;;;13.53;;
7669;SDS011;3877;42.562;27.636;2024-02-21T02:45:26;21.63;;;13.73;;
7669;SDS011;3877;42.562;27.636;2024-02-21T02:47:53;22.97;;;14.47;;
7669;SDS011;3877;42.562;27.636;2024-02-21T02:50:22;23.43;;;15.17;;
7669;SDS011;3877;42.562;27.636;2024-02-21T02:52:49;21.20;;;14.33;;
7669;SDS011;3877;42.562;27.636;2024-02-21T02:55:16;22.30;;;13.77;;
7669;SDS011;3877;42.562;27.636;2024-02-21T02:57:43;20.27;;;12.43;;
7669;SDS011;3877;42.562;27.636;2024-02-21T03:00:12;23.63;;;13.27;;
7669;SDS011;3877;42.562;27.636;2024-02-21T03:02:40;19.43;;;12.83;;
7669;SDS011;3877;42.562;27.636;2024-02-21T03:05:11;21.23;;;13.20;;
7669;SDS011;3877;42.562;27.636;2024-02-21T03:07:38;21.70;;;13.70;;
7669;SDS011;3877;42.562;27.636;2024-02-21T03:10:09;21.67;;;13.70;;
7669;SDS011;3877;42.562;27.636;2024-02-21T03:12:37;21.60;;;13.93;;
7669;SDS011;3877;42.562;27.636;2024-02-21T03:15:04;20.27;;;13.60;;
7669;SDS011;3877;42.562;27.636;2024-02-21T03:17:33;20.63;;;13.63;;
7669;SDS011;3877;42.562;27.636;2024-02-21T03:20:00;20.53;;;12.67;;
7669;SDS011;3877;42.562;27.636;2024-02-21T03:22:30;22.40;;;14.20;;
7669;SDS011;3877;42.562;27.636;2024-02-21T03:24:57;18.30;;;13.20;;
7669;SDS011;3877;42.562;27.636;2024-02-21T03:27:24;19.70;;;13.30;;
7669;SDS011;3877;42.562;27.636;2024-02-21T03:29:51;21.87;;;13.83;;
7669;SDS011;3877;42.562;27.636;2024-02-21T03:32:18;21.63;;;14.73;;
7669;SDS011;3877;42.562;27.636;2024-02-21T03:34:47;22.40;;;14.43;;
7669;SDS011;3877;42.562;27.636;2024-02-21T03:37:14;23.27;;;14.40;;
7669;SDS011;3877;42.562;27.636;2024-02-21T03:39:41;19.13;;;13.57;;
7669;SDS011;3877;42.562;27.636;2024-02-21T03:42:08;17.97;;;13.37;;
7669;SDS011;3877;42.562;27.636;2024-02-21T03:44:36;23.50;;;14.50;;
7669;SDS011;3877;42.562;27.636;2024-02-21T03:47:02;26.63;;;15.70;;
7669;SDS011;3877;42.562;27.636;2024-02-21T03:49:29;25.33;;;14.63;;
7669;SDS011;3877;42.562;27.636;2024-02-21T03:51:57;21.20;;;13.80;;
7669;SDS011;3877;42.562;27.636;2024-02-21T03:54:24;18.90;;;13.37;;
7669;SDS011;3877;42.562;27.636;2024-02-21T03:56:51;19.97;;;12.47;;
7669;SDS011;3877;42.562;27.636;2024-02-21T03:59:18;21.93;;;12.87;;
7669;SDS011;3877;42.562;27.636;2024-02-21T04:01:45;18.60;;;12.33;;
7669;SDS011;3877;42.562;27.636;2024-02-21T04:04:12;20.40;;;11.43;;
7669;SDS011;3877;42.562;27.636;2024-02-21T04:06:45;18.17;;;12.20;;
7669;SDS011;3877;42.562;27.636;2024-02-21T04:09:14;17.97;;;11.97;;
7669;SDS011;3877;42.562;27.636;2024-02-21T04:11:41;18.27;;;13.10;;
7669;SDS011;3877;42.562;27.636;2024-02-21T04:14:08;19.03;;;12.77;;
7669;SDS011;3877;42.562;27.636;2024-02-21T04:16:36;19.37;;;12.10;;
7669;SDS011;3877;42.562;27.636;2024-02-21T04:19:04;20.27;;;14.20;;
7669;SDS011;3877;42.562;27.636;2024-02-21T04:21:31;20.73;;;14.00;;
7669;SDS011;3877;42.562;27.636;2024-02-21T04:23:58;20.40;;;14.83;;
7669;SDS011;3877;42.562;27.636;2024-02-21T04:26:28;21.93;;;16.00;;
7669;SDS011;3877;42.562;27.636;2024-02-21T04:28:55;24.50;;;16.93;;
7669;SDS011;3877;42.562;27.636;2024-02-21T04:31:22;19.63;;;12.97;;
7669;SDS011;3877;42.562;27.636;2024-02-21T04:33:49;17.57;;;12.53;;
7669;SDS011;3877;42.562;27.636;2024-02-21T04:36:17;19.90;;;12.93;;
7669;SDS011;3877;42.562;27.636;2024-02-21T04:38:44;18.90;;;11.30;;
7669;SDS011;3877;42.562;27.636;2024-02-21T04:41:11;16.43;;;11.70;;
7669;SDS011;3877;42.562;27.636;2024-02-21T04:43:40;22.07;;;11.97;;
7669;SDS011;3877;42.562;27.636;2024-02-21T04:46:07;19.30;;;12.53;;
7669;SDS011;3877;42.562;27.636;2024-02-21T04:48:35;20.80;;;11.97;;
7669;SDS011;3877;42.562;27.636;2024-02-21T04:51:02;19.13;;;12.47;;
7669;SDS011;3877;42.562;27.636;2024-02-21T04:53:29;20.60;;;11.43;;
7669;SDS011;3877;42.562;27.636;2024-02-21T04:55:56;19.83;;;11.97;;
7669;SDS011;3877;42.562;27.636;2024-02-21T04:58:23;20.77;;;12.77;;
7669;SDS011;3877;42.562;27.636;2024-02-21T05:00:52;17.77;;;12.87;;
7669;SDS011;3877;42.562;27.636;2024-02-21T05:03:20;25.37;;;17.27;;
7669;SDS011;3877;42.562;27.636;2024-02-21T05:05:47;21.43;;;14.80;;
7669;SDS011;3877;42.562;27.636;2024-02-21T05:08:15;22.90;;;16.83;;
7669;SDS011;3877;42.562;27.636;2024-02-21T05:10:41;26.13;;;15.83;;
7669;SDS011;3877;42.562;27.636;2024-02-21T05:13:08;25.03;;;16.53;;
7669;SDS011;3877;42.562;27.636;2024-02-21T05:15:36;24.73;;;16.10;;
7669;SDS011;3877;42.562;27.636;2024-02-21T05:18:04;34.90;;;18.43;;
7669;SDS011;3877;42.562;27.636;2024-02-21T05:20:31;30.50;;;18.77;;
7669;SDS011;3877;42.562;27.636;2024-02-21T05:22:59;34.07;;;20.17;;
7669;SDS011;3877;42.562;27.636;2024-02-21T05:25:26;34.47;;;21.80;;
7669;SDS011;3877;42.562;27.636;2024-02-21T05:27:53;34.87;;;20.90;;
7669;SDS011;3877;42.562;27.636;2024-02-21T05:30:21;36.03;;;21.90;;
7669;SDS011;3877;42.562;27.636;2024-02-21T05:32:48;40.10;;;22.73;;
7669;SDS011;3877;42.562;27.636;2024-02-21T05:35:17;29.70;;;19.37;;
7669;SDS011;3877;42.562;27.636;2024-02-21T05:37:44;32.67;;;20.90;;
7669;SDS011;3877;42.562;27.636;2024-02-21T05:40:13;37.83;;;22.73;;
7669;SDS011;3877;42.562;27.636;2024-02-21T05:42:40;36.63;;;22.63;;
7669;SDS011;3877;42.562;27.636;2024-02-21T05:45:08;34.27;;;21.70;;
7669;SDS011;3877;42.562;27.636;2024-02-21T05:47:34;34.90;;;21.93;;
7669;SDS011;3877;42.562;27.636;2024-02-21T05:50:01;29.80;;;19.83;;
7669;SDS011;3877;42.562;27.636;2024-02-21T05:52:30;31.37;;;19.70;;
7669;SDS011;3877;42.562;27.636;2024-02-21T05:54:57;30.10;;;19.60;;
7669;SDS011;3877;42.562;27.636;2024-02-21T05:57:24;31.90;;;21.70;;
7669;SDS011;3877;42.562;27.636;2024-02-21T05:59:51;29.67;;;19.47;;
7669;SDS011;3877;42.562;27.636;2024-02-21T06:02:18;28.10;;;19.90;;
7669;SDS011;3877;42.562;27.636;2024-02-21T06:04:45;33.87;;;21.07;;
7669;SDS011;3877;42.562;27.636;2024-02-21T06:07:12;32.80;;;21.63;;
7669;SDS011;3877;42.562;27.636;2024-02-21T06:09:41;35.00;;;23.17;;
7669;SDS011;3877;42.562;27.636;2024-02-21T06:12:08;34.67;;;22.17;;
7669;SDS011;3877;42.562;27.636;2024-02-21T06:14:35;34.73;;;24.37;;
7669;SDS011;3877;42.562;27.636;2024-02-21T06:17:02;37.83;;;24.93;;
7669;SDS011;3877;42.562;27.636;2024-02-21T06:19:29;37.33;;;24.87;;
7669;SDS011;3877;42.562;27.636;2024-02-21T06:21:56;34.60;;;24.27;;
7669;SDS011;3877;42.562;27.636;2024-02-21T06:24:23;34.20;;;23.27;;
7669;SDS011;3877;42.562;27.636;2024-02-21T06:26:52;34.67;;;23.57;;
7669;SDS011;3877;42.562;27.636;2024-02-21T06:29:19;41.53;;;26.07;;
7669;SDS011;3877;42.562;27.636;2024-02-21T06:31:46;39.17;;;24.33;;
7669;SDS011;3877;42.562;27.636;2024-02-21T06:34:13;39.30;;;25.50;;
7669;SDS011;3877;42.562;27.636;2024-02-21T06:36:40;41.70;;;24.50;;
7669;SDS011;3877;42.562;27.636;2024-02-21T06:39:07;42.43;;;25.00;;
7669;SDS011;3877;42.562;27.636;2024-02-21T06:41:34;41.73;;;24.53;;
7669;SDS011;3877;42.562;27.636;2024-02-21T06:44:03;37.60;;;24.40;;
7669;SDS011;3877;42.562;27.636;2024-02-21T06:46:30;36.10;;;22.90;;
7669;SDS011;3877;42.562;27.636;2024-02-21T06:48:58;32.00;;;20.67;;
7669;SDS011;3877;42.562;27.636;2024-02-21T06:51:26;33.17;;;21.23;;
7669;SDS011;3877;42.562;27.636;2024-02-21T06:53:53;38.60;;;25.23;;
7669;SDS011;3877;42.562;27.636;2024-02-21T06:56:23;35.67;;;23.10;;
7669;SDS011;3877;42.562;27.636;2024-02-21T06:58:52;34.40;;;23.17;;
7669;SDS011;3877;42.562;27.636;2024-02-21T07:01:20;31.93;;;22.07;;
7669;SDS011;3877;42.562;27.636;2024-02-21T07:03:47;33.30;;;22.63;;
7669;SDS011;3877;42.562;27.636;2024-02-21T07:06:14;32.87;;;21.83;;
7669;SDS011;3877;42.562;27.636;2024-02-21T07:08:41;31.90;;;20.97;;
7669;SDS011;3877;42.562;27.636;2024-02-21T07:11:08;42.53;;;22.00;;
7669;SDS011;3877;42.562;27.636;2024-02-21T07:13:35;28.67;;;18.20;;
7669;SDS011;3877;42.562;27.636;2024-02-21T07:16:02;34.70;;;19.87;;
7669;SDS011;3877;42.562;27.636;2024-02-21T07:18:30;38.93;;;20.30;;
7669;SDS011;3877;42.562;27.636;2024-02-21T07:20:57;30.10;;;19.67;;
7669;SDS011;3877;42.562;27.636;2024-02-21T07:23:25;24.73;;;16.10;;
7669;SDS011;3877;42.562;27.636;2024-02-21T07:25:51;23.63;;;16.00;;
7669;SDS011;3877;42.562;27.636;2024-02-21T07:28:18;26.50;;;16.80;;
7669;SDS011;3877;42.562;27.636;2024-02-21T07:30:46;26.30;;;17.40;;
7669;SDS011;3877;42.562;27.636;2024-02-21T07:33:14;27.17;;;17.43;;
7669;SDS011;3877;42.562;27.636;2024-02-21T07:35:43;26.73;;;18.83;;
7669;SDS011;3877;42.562;27.636;2024-02-21T07:38:10;33.43;;;21.77;;
7669;SDS011;3877;42.562;27.636;2024-02-21T07:40:37;30.43;;;19.23;;
7669;SDS011;3877;42.562;27.636;2024-02-21T07:43:04;31.20;;;20.40;;
7669;SDS011;3877;42.562;27.636;2024-02-21T07:45:31;30.60;;;19.83;;
7669;SDS011;3877;42.562;27.636;2024-02-21T07:47:58;28.70;;;19.03;;
7669;SDS011;3877;42.562;27.636;2024-02-21T07:50:25;26.57;;;18.53;;
7669;SDS011;3877;42.562;27.636;2024-02-21T07:52:54;29.47;;;18.47;;
7669;SDS011;3877;42.562;27.636;2024-02-21T07:55:21;29.53;;;19.33;;
7669;SDS011;3877;42.562;27.636;2024-02-21T07:57:48;30.20;;;17.83;;
7669;SDS011;3877;42.562;27.636;2024-02-21T08:00:15;25.70;;;16.80;;
7669;SDS011;3877;42.562;27.636;2024-02-21T08:02:45;29.00;;;18.37;;
7669;SDS011;3877;42.562;27.636;2024-02-21T08:05:12;28.87;;;17.80;;
7669;SDS011;3877;42.562;27.636;2024-02-21T08:07:41;26.80;;;17.60;;
7669;SDS011;3877;42.562;27.636;2024-02-21T08:10:10;26.87;;;16.00;;
7669;SDS011;3877;42.562;27.636;2024-02-21T08:12:37;25.23;;;15.20;;
7669;SDS011;3877;42.562;27.636;2024-02-21T08:15:05;24.27;;;15.40;;
7669;SDS011;3877;42.562;27.636;2024-02-21T08:17:33;24.10;;;15.80;;
7669;SDS011;3877;42.562;27.636;2024-02-21T08:20:00;26.33;;;15.97;;
7669;SDS011;3877;42.562;27.636;2024-02-21T08:22:28;26.30;;;15.07;;
7669;SDS011;3877;42.562;27.636;2024-02-21T08:24:55;50.67;;;25.60;;
7669;SDS011;3877;42.562;27.636;2024-02-21T08:27:23;34.07;;;19.27;;
7669;SDS011;3877;42.562;27.636;2024-02-21T08:29:51;46.53;;;22.77;;
7669;SDS011;3877;42.562;27.636;2024-02-21T08:32:18;32.43;;;19.23;;
7669;SDS011;3877;42.562;27.636;2024-02-21T08:34:45;31.80;;;20.43;;
7669;SDS011;3877;42.562;27.636;2024-02-21T08:37:12;35.43;;;22.57;;
7669;SDS011;3877;42.562;27.636;2024-02-21T08:39:39;31.10;;;20.93;;
7669;SDS011;3877;42.562;27.636;2024-02-21T08:42:06;34.03;;;21.13;;
7669;SDS011;3877;42.562;27.636;2024-02-21T08:44:35;32.92;;;20.70;;
7669;SDS011;3877;42.562;27.636;2024-02-21T08:47:02;35.90;;;21.63;;
7669;SDS011;3877;42.562;27.636;2024-02-21T08:49:31;39.37;;;25.00;;
7669;SDS011;3877;42.562;27.636;2024-02-21T08:51:58;42.00;;;25.63;;
7669;SDS011;3877;42.562;27.636;2024-02-21T08:54:25;35.57;;;23.93;;
7669;SDS011;3877;42.562;27.636;2024-02-21T08:56:52;34.30;;;21.43;;
7669;SDS011;3877;42.562;27.636;2024-02-21T08:59:21;37.17;;;24.70;;
7669;SDS011;3877;42.562;27.636;2024-02-21T09:01:49;34.83;;;21.13;;
7669;SDS011;3877;42.562;27.636;2024-02-21T09:04:16;23.70;;;16.80;;
7669;SDS011;3877;42.562;27.636;2024-02-21T09:06:45;28.57;;;19.53;;
7669;SDS011;3877;42.562;27.636;2024-02-21T09:09:12;29.37;;;17.90;;
7669;SDS011;3877;42.562;27.636;2024-02-21T09:11:39;28.13;;;19.27;;
7669;SDS011;3877;42.562;27.636;2024-02-21T09:14:06;30.73;;;22.40;;
7669;SDS011;3877;42.562;27.636;2024-02-21T09:16:33;31.63;;;19.83;;
7669;SDS011;3877;42.562;27.636;2024-02-21T09:19:02;34.40;;;21.40;;
7669;SDS011;3877;42.562;27.636;2024-02-21T09:21:29;26.50;;;16.90;;
7669;SDS011;3877;42.562;27.636;2024-02-21T09:23:55;26.03;;;17.43;;
7669;SDS011;3877;42.562;27.636;2024-02-21T09:26:22;26.93;;;17.00;;
7669;SDS011;3877;42.562;27.636;2024-02-21T09:28:49;30.13;;;19.17;;
7669;SDS011;3877;42.562;27.636;2024-02-21T09:31:16;30.33;;;20.40;;
7669;SDS011;3877;42.562;27.636;2024-02-21T09:33:44;29.67;;;17.03;;
7669;SDS011;3877;42.562;27.636;2024-02-21T09:36:13;30.87;;;18.27;;
7669;SDS011;3877;42.562;27.636;2024-02-21T09:38:40;34.00;;;22.40;;
7669;SDS011;3877;42.562;27.636;2024-02-21T09:41:15;29.33;;;19.37;;
7669;SDS011;3877;42.562;27.636;2024-02-21T09:43:43;40.73;;;24.70;;
7669;SDS011;3877;42.562;27.636;2024-02-21T09:46:13;30.50;;;20.30;;
7669;SDS011;3877;42.562;27.636;2024-02-21T09:48:45;25.97;;;18.13;;
7669;SDS011;3877;42.562;27.636;2024-02-21T09:51:19;33.47;;;20.50;;
7669;SDS011;3877;42.562;27.636;2024-02-21T09:53:46;29.00;;;19.13;;
7669;SDS011;3877;42.562;27.636;2024-02-21T09:56:14;29.23;;;19.77;;
7669;SDS011;3877;42.562;27.636;2024-02-21T09:58:41;33.53;;;23.57;;
7669;SDS011;3877;42.562;27.636;2024-02-21T10:01:08;27.20;;;18.40;;
7669;SDS011;3877;42.562;27.636;2024-02-21T10:03:35;28.43;;;19.17;;
7669;SDS011;3877;42.562;27.636;2024-02-21T10:06:03;41.97;;;20.33;;
7669;SDS011;3877;42.562;27.636;2024-02-21T10:08:31;28.73;;;18.50;;
7669;SDS011;3877;42.562;27.636;2024-02-21T10:10:58;30.87;;;19.77;;
7669;SDS011;3877;42.562;27.636;2024-02-21T10:13:27;30.97;;;17.33;;
7669;SDS011;3877;42.562;27.636;2024-02-21T10:16:01;28.17;;;18.23;;
7669;SDS011;3877;42.562;27.636;2024-02-21T10:18:28;35.07;;;21.27;;
7669;SDS011;3877;42.562;27.636;2024-02-21T10:21:02;55.47;;;31.60;;
7669;SDS011;3877;42.562;27.636;2024-02-21T10:23:41;31.47;;;20.87;;
7669;SDS011;3877;42.562;27.636;2024-02-21T10:26:09;28.17;;;18.87;;
7669;SDS011;3877;42.562;27.636;2024-02-21T10:28:36;33.00;;;19.10;;
7669;SDS011;3877;42.562;27.636;2024-02-21T10:31:03;30.73;;;18.73;;
7669;SDS011;3877;42.562;27.636;2024-02-21T10:33:30;45.10;;;23.17;;
7669;SDS011;3877;42.562;27.636;2024-02-21T10:36:05;53.77;;;28.23;;
7669;SDS011;3877;42.562;27.636;2024-02-21T10:38:33;55.17;;;26.45;;
7669;SDS011;3877;42.562;27.636;2024-02-21T10:41:01;43.73;;;22.47;;
7669;SDS011;3877;42.562;27.636;2024-02-21T10:43:29;31.83;;;18.80;;
7669;SDS011;3877;42.562;27.636;2024-02-21T10:45:57;32.87;;;20.00;;
7669;SDS011;3877;42.562;27.636;2024-02-21T10:48:29;43.50;;;24.67;;
7669;SDS011;3877;42.562;27.636;2024-02-21T10:51:01;40.10;;;22.73;;
7669;SDS011;3877;42.562;27.636;2024-02-21T10:53:34;53.63;;;28.20;;
7669;SDS011;3877;42.562;27.636;2024-02-21T10:56:06;46.27;;;26.00;;
7669;SDS011;3877;42.562;27.636;2024-02-21T10:58:33;52.87;;;26.17;;
7669;SDS011;3877;42.562;27.636;2024-02-21T11:01:02;38.78;;;21.67;;
7669;SDS011;3877;42.562;27.636;2024-02-21T11:03:29;40.80;;;22.88;;
7669;SDS011;3877;42.562;27.636;2024-02-21T11:05:58;33.27;;;21.07;;
7669;SDS011;3877;42.562;27.636;2024-02-21T11:08:25;49.00;;;24.07;;
7669;SDS011;3877;42.562;27.636;2024-02-21T11:10:56;38.97;;;21.67;;
7669;SDS011;3877;42.562;27.636;2024-02-21T11:13:31;42.30;;;25.37;;
7669;SDS011;3877;42.562;27.636;2024-02-21T11:16:05;40.23;;;20.03;;
7669;SDS011;3877;42.562;27.636;2024-02-21T11:18:33;30.93;;;20.93;;
7669;SDS011;3877;42.562;27.636;2024-02-21T11:21:00;29.47;;;19.07;;
7669;SDS011;3877;42.562;27.636;2024-02-21T11:23:28;70.60;;;35.63;;
7669;SDS011;3877;42.562;27.636;2024-02-21T11:26:03;41.58;;;22.67;;
7669;SDS011;3877;42.562;27.636;2024-02-21T11:28:33;38.10;;;24.27;;
7669;SDS011;3877;42.562;27.636;2024-02-21T11:31:10;38.88;;;23.75;;
7669;SDS011;3877;42.562;27.636;2024-02-21T11:33:39;31.63;;;20.80;;
7669;SDS011;3877;42.562;27.636;2024-02-21T11:36:06;39.93;;;24.23;;
7669;SDS011;3877;42.562;27.636;2024-02-21T11:38:33;53.00;;;26.92;;
7669;SDS011;3877;42.562;27.636;2024-02-21T11:41:00;37.92;;;21.42;;
7669;SDS011;3877;42.562;27.636;2024-02-21T11:43:27;43.67;;;25.90;;
7669;SDS011;3877;42.562;27.636;2024-02-21T11:46:00;43.30;;;25.27;;
7669;SDS011;3877;42.562;27.636;2024-02-21T11:48:28;43.00;;;26.33;;
7669;SDS011;3877;42.562;27.636;2024-02-21T11:50:55;39.23;;;25.97;;
7669;SDS011;3877;42.562;27.636;2024-02-21T11:53:23;60.25;;;32.55;;
7669;SDS011;3877;42.562;27.636;2024-02-21T11:55:52;38.13;;;23.83;;
7669;SDS011;3877;42.562;27.636;2024-02-21T11:58:21;44.87;;;22.33;;
7669;SDS011;3877;42.562;27.636;2024-02-21T12:00:48;31.48;;;21.75;;
7669;SDS011;3877;42.562;27.636;2024-02-21T12:03:16;31.13;;;21.90;;
7669;SDS011;3877;42.562;27.636;2024-02-21T12:05:43;36.63;;;24.73;;
7669;SDS011;3877;42.562;27.636;2024-02-21T12:08:12;40.17;;;25.63;;
7669;SDS011;3877;42.562;27.636;2024-02-21T12:10:38;31.23;;;21.45;;
7669;SDS011;3877;42.562;27.636;2024-02-21T12:13:06;39.53;;;21.13;;
7669;SDS011;3877;42.562;27.636;2024-02-21T12:15:33;31.67;;;20.83;;
7669;SDS011;3877;42.562;27.636;2024-02-21T12:18:00;40.25;;;21.65;;
7669;SDS011;3877;42.562;27.636;2024-02-21T12:20:30;32.90;;;22.17;;
7669;SDS011;3877;42.562;27.636;2024-02-21T12:22:57;39.33;;;24.97;;
7669;SDS011;3877;42.562;27.636;2024-02-21T12:25:26;39.50;;;25.37;;
7669;SDS011;3877;42.562;27.636;2024-02-21T12:27:54;31.93;;;23.10;;
7669;SDS011;3877;42.562;27.636;2024-02-21T12:30:22;32.50;;;22.43;;
7669;SDS011;3877;42.562;27.636;2024-02-21T12:32:49;31.53;;;21.07;;
7669;SDS011;3877;42.562;27.636;2024-02-21T12:35:16;28.90;;;20.67;;
7669;SDS011;3877;42.562;27.636;2024-02-21T12:37:44;33.05;;;21.08;;
7669;SDS011;3877;42.562;27.636;2024-02-21T12:40:12;25.90;;;18.03;;
7669;SDS011;3877;42.562;27.636;2024-02-21T12:42:40;27.63;;;16.40;;
7669;SDS011;3877;42.562;27.636;2024-02-21T12:45:07;25.17;;;15.80;;
7669;SDS011;3877;42.562;27.636;2024-02-21T12:47:34;24.07;;;16.20;;
7669;SDS011;3877;42.562;27.636;2024-02-21T12:50:01;25.85;;;16.98;;
7669;SDS011;3877;42.562;27.636;2024-02-21T12:52:29;24.35;;;16.13;;
7669;SDS011;3877;42.562;27.636;2024-02-21T12:54:58;28.08;;;17.35;;
7669;SDS011;3877;42.562;27.636;2024-02-21T12:57:25;26.92;;;16.63;;
7669;SDS011;3877;42.562;27.636;2024-02-21T12:59:52;26.23;;;16.30;;
7669;SDS011;3877;42.562;27.636;2024-02-21T13:02:19;30.23;;;16.80;;
7669;SDS011;3877;42.562;27.636;2024-02-21T13:04:46;24.05;;;16.45;;
7669;SDS011;3877;42.562;27.636;2024-02-21T13:07:13;30.85;;;17.17;;
7669;SDS011;3877;42.562;27.636;2024-02-21T13:09:40;24.08;;;15.75;;
7669;SDS011;3877;42.562;27.636;2024-02-21T13:12:09;24.63;;;16.70;;
7669;SDS011;3877;42.562;27.636;2024-02-21T13:14:37;21.43;;;14.90;;
7669;SDS011;3877;42.562;27.636;2024-02-21T13:17:05;30.60;;;17.70;;
7669;SDS011;3877;42.562;27.636;2024-02-21T13:19:32;28.07;;;17.67;;
7669;SDS011;3877;42.562;27.636;2024-02-21T13:21:59;27.27;;;17.50;;
7669;SDS011;3877;42.562;27.636;2024-02-21T13:24:27;27.30;;;18.07;;
7669;SDS011;3877;42.562;27.636;2024-02-21T13:26:54;25.63;;;17.00;;
7669;SDS011;3877;42.562;27.636;2024-02-21T13:29:23;29.87;;;16.90;;
7669;SDS011;3877;42.562;27.636;2024-02-21T13:31:49;29.70;;;17.03;;
7669;SDS011;3877;42.562;27.636;2024-02-21T13:34:17;26.13;;;17.20;;
7669;SDS011;3877;42.562;27.636;2024-02-21T13:36:44;32.77;;;18.00;;
7669;SDS011;3877;42.562;27.636;2024-02-21T13:39:11;26.53;;;17.97;;
7669;SDS011;3877;42.562;27.636;2024-02-21T13:41:41;29.27;;;18.10;;
7669;SDS011;3877;42.562;27.636;2024-02-21T13:44:08;31.97;;;18.73;;
7669;SDS011;3877;42.562;27.636;2024-02-21T13:46:37;29.80;;;18.83;;
7669;SDS011;3877;42.562;27.636;2024-02-21T13:49:04;50.67;;;22.10;;
7669;SDS011;3877;42.562;27.636;2024-02-21T13:51:33;32.67;;;21.67;;
7669;SDS011;3877;42.562;27.636;2024-02-21T13:54:01;37.17;;;22.43;;
7669;SDS011;3877;42.562;27.636;2024-02-21T13:56:28;38.63;;;22.40;;
7669;SDS011;3877;42.562;27.636;2024-02-21T13:58:55;39.97;;;26.17;;
7669;SDS011;3877;42.562;27.636;2024-02-21T14:01:22;41.40;;;23.87;;
7669;SDS011;3877;42.562;27.636;2024-02-21T14:03:51;38.30;;;23.73;;
7669;SDS011;3877;42.562;27.636;2024-02-21T14:06:18;37.93;;;22.50;;
7669;SDS011;3877;42.562;27.636;2024-02-21T14:08:45;34.93;;;21.97;;
7669;SDS011;3877;42.562;27.636;2024-02-21T14:11:12;34.23;;;22.00;;
7669;SDS011;3877;42.562;27.636;2024-02-21T14:13:40;31.63;;;20.53;;
7669;SDS011;3877;42.562;27.636;2024-02-21T14:16:09;35.20;;;21.20;;
7669;SDS011;3877;42.562;27.636;2024-02-21T14:18:36;32.13;;;21.70;;
7669;SDS011;3877;42.562;27.636;2024-02-21T14:21:05;34.20;;;22.40;;
7669;SDS011;3877;42.562;27.636;2024-02-21T14:23:32;31.23;;;20.60;;
7669;SDS011;3877;42.562;27.636;2024-02-21T14:25:59;33.70;;;22.07;;
7669;SDS011;3877;42.562;27.636;2024-02-21T14:28:26;53.60;;;34.13;;
7669;SDS011;3877;42.562;27.636;2024-02-21T14:30:53;38.37;;;26.03;;
7669;SDS011;3877;42.562;27.636;2024-02-21T14:33:22;37.40;;;25.40;;
7669;SDS011;3877;42.562;27.636;2024-02-21T14:35:49;30.40;;;20.40;;
7669;SDS011;3877;42.562;27.636;2024-02-21T14:38:18;27.83;;;20.50;;